sensor_id;sensor_type;location;lat;lon;timestamp;P1;durP1;ratioP1;P2;durP2;ratioP2
8435;SDS011;4255;48.730;9.156;2023-12-04T00:02:13;46.77;;;24.83;;
8435;SDS011;4255;48.730;9.156;2023-12-04T00:04:38;49.47;;;23.43;;
8435;SDS011;4255;48.730;9.156;2023-12-04T00:07:04;38.53;;;21.40;;
8435;SDS011;4255;48.730;9.156;2023-12-04T00:09:29;38.43;;;21.13;;
8435;SDS011;4255;48.730;9.156;2023-12-04T00:11:55;37.30;;;20.93;;
8435;SDS011;4255;48.730;9.156;2023-12-04T00:14:21;40.23;;;22.93;;
8435;SDS011;4255;48.730;9.156;2023-12-04T00:16:46;37.07;;;21.47;;
8435;SDS011;4255;48.730;9.156;2023-12-04T00:19:12;41.90;;;21.77;;
8435;SDS011;4255;48.730;9.156;2023-12-04T00:21:37;34.83;;;21.30;;
8435;SDS011;4255;48.730;9.156;2023-12-04T00:24:04;38.47;;;19.53;;
8435;SDS011;4255;48.730;9.156;2023-12-04T00:26:29;36.30;;;21.77;;
8435;SDS011;4255;48.730;9.156;2023-12-04T00:28:55;41.10;;;21.20;;
8435;SDS011;4255;48.730;9.156;2023-12-04T00:31:21;37.33;;;22.40;;
8435;SDS011;4255;48.730;9.156;2023-12-04T00:33:46;28.73;;;19.40;;
8435;SDS011;4255;48.730;9.156;2023-12-04T00:36:15;39.72;;;22.83;;
8435;SDS011;4255;48.730;9.156;2023-12-04T00:38:41;37.67;;;19.83;;
8435;SDS011;4255;48.730;9.156;2023-12-04T00:41:07;35.50;;;19.97;;
8435;SDS011;4255;48.730;9.156;2023-12-04T00:43:32;35.53;;;22.77;;
8435;SDS011;4255;48.730;9.156;2023-12-04T00:45:58;32.10;;;19.00;;
8435;SDS011;4255;48.730;9.156;2023-12-04T00:48:24;41.80;;;20.20;;
8435;SDS011;4255;48.730;9.156;2023-12-04T00:50:50;37.73;;;19.27;;
8435;SDS011;4255;48.730;9.156;2023-12-04T00:53:16;35.58;;;20.23;;
8435;SDS011;4255;48.730;9.156;2023-12-04T00:55:41;38.87;;;21.20;;
8435;SDS011;4255;48.730;9.156;2023-12-04T00:58:09;40.38;;;24.08;;
8435;SDS011;4255;48.730;9.156;2023-12-04T01:00:35;30.53;;;18.90;;
8435;SDS011;4255;48.730;9.156;2023-12-04T01:03:00;33.30;;;18.50;;
8435;SDS011;4255;48.730;9.156;2023-12-04T01:05:26;32.03;;;18.03;;
8435;SDS011;4255;48.730;9.156;2023-12-04T01:07:52;30.43;;;18.37;;
8435;SDS011;4255;48.730;9.156;2023-12-04T01:10:17;28.88;;;18.92;;
8435;SDS011;4255;48.730;9.156;2023-12-04T01:12:43;29.33;;;18.23;;
8435;SDS011;4255;48.730;9.156;2023-12-04T01:15:09;37.53;;;17.90;;
8435;SDS011;4255;48.730;9.156;2023-12-04T01:17:34;28.77;;;17.83;;
8435;SDS011;4255;48.730;9.156;2023-12-04T01:20:00;33.03;;;17.50;;
8435;SDS011;4255;48.730;9.156;2023-12-04T01:22:26;29.43;;;17.60;;
8435;SDS011;4255;48.730;9.156;2023-12-04T01:24:51;31.90;;;19.13;;
8435;SDS011;4255;48.730;9.156;2023-12-04T01:27:17;34.53;;;18.23;;
8435;SDS011;4255;48.730;9.156;2023-12-04T01:29:43;34.53;;;20.17;;
8435;SDS011;4255;48.730;9.156;2023-12-04T01:32:08;38.50;;;21.50;;
8435;SDS011;4255;48.730;9.156;2023-12-04T01:34:34;36.07;;;21.27;;
8435;SDS011;4255;48.730;9.156;2023-12-04T01:36:59;35.33;;;19.20;;
8435;SDS011;4255;48.730;9.156;2023-12-04T01:39:25;29.10;;;18.80;;
8435;SDS011;4255;48.730;9.156;2023-12-04T01:41:51;28.37;;;18.23;;
8435;SDS011;4255;48.730;9.156;2023-12-04T01:44:16;34.50;;;19.53;;
8435;SDS011;4255;48.730;9.156;2023-12-04T01:46:42;34.17;;;20.00;;
8435;SDS011;4255;48.730;9.156;2023-12-04T01:49:08;35.50;;;18.77;;
8435;SDS011;4255;48.730;9.156;2023-12-04T01:51:34;36.47;;;18.67;;
8435;SDS011;4255;48.730;9.156;2023-12-04T01:54:00;36.22;;;18.85;;
8435;SDS011;4255;48.730;9.156;2023-12-04T01:56:28;42.42;;;22.92;;
8435;SDS011;4255;48.730;9.156;2023-12-04T01:58:54;38.92;;;19.95;;
8435;SDS011;4255;48.730;9.156;2023-12-04T02:01:20;31.48;;;18.95;;
8435;SDS011;4255;48.730;9.156;2023-12-04T02:03:48;31.67;;;19.52;;
8435;SDS011;4255;48.730;9.156;2023-12-04T02:06:14;28.35;;;18.73;;
8435;SDS011;4255;48.730;9.156;2023-12-04T02:08:42;28.95;;;18.02;;
8435;SDS011;4255;48.730;9.156;2023-12-04T02:11:07;37.30;;;17.67;;
8435;SDS011;4255;48.730;9.156;2023-12-04T02:13:33;30.67;;;17.53;;
8435;SDS011;4255;48.730;9.156;2023-12-04T02:16:00;26.83;;;16.80;;
8435;SDS011;4255;48.730;9.156;2023-12-04T02:18:33;29.70;;;17.35;;
8435;SDS011;4255;48.730;9.156;2023-12-04T02:21:00;30.27;;;18.77;;
8435;SDS011;4255;48.730;9.156;2023-12-04T02:23:26;35.17;;;17.80;;
8435;SDS011;4255;48.730;9.156;2023-12-04T02:25:53;31.10;;;19.83;;
8435;SDS011;4255;48.730;9.156;2023-12-04T02:28:31;27.50;;;16.30;;
8435;SDS011;4255;48.730;9.156;2023-12-04T02:30:58;29.77;;;17.70;;
8435;SDS011;4255;48.730;9.156;2023-12-04T02:33:26;31.85;;;19.85;;
8435;SDS011;4255;48.730;9.156;2023-12-04T02:35:52;30.90;;;18.10;;
8435;SDS011;4255;48.730;9.156;2023-12-04T02:38:20;32.95;;;18.42;;
8435;SDS011;4255;48.730;9.156;2023-12-04T02:40:46;28.98;;;17.85;;
8435;SDS011;4255;48.730;9.156;2023-12-04T02:43:12;31.70;;;17.27;;
8435;SDS011;4255;48.730;9.156;2023-12-04T02:45:37;31.70;;;17.63;;
8435;SDS011;4255;48.730;9.156;2023-12-04T02:48:03;30.67;;;18.57;;
8435;SDS011;4255;48.730;9.156;2023-12-04T02:50:29;31.83;;;17.17;;
8435;SDS011;4255;48.730;9.156;2023-12-04T02:52:54;31.47;;;16.60;;
8435;SDS011;4255;48.730;9.156;2023-12-04T02:55:20;30.87;;;20.23;;
8435;SDS011;4255;48.730;9.156;2023-12-04T02:57:45;36.10;;;19.40;;
8435;SDS011;4255;48.730;9.156;2023-12-04T03:00:12;32.40;;;18.53;;
8435;SDS011;4255;48.730;9.156;2023-12-04T03:02:38;31.08;;;18.08;;
8435;SDS011;4255;48.730;9.156;2023-12-04T03:05:04;32.53;;;18.10;;
8435;SDS011;4255;48.730;9.156;2023-12-04T03:07:30;34.83;;;18.70;;
8435;SDS011;4255;48.730;9.156;2023-12-04T03:09:55;34.00;;;18.37;;
8435;SDS011;4255;48.730;9.156;2023-12-04T03:12:21;31.33;;;18.70;;
8435;SDS011;4255;48.730;9.156;2023-12-04T03:14:47;28.67;;;18.47;;
8435;SDS011;4255;48.730;9.156;2023-12-04T03:17:12;28.97;;;16.43;;
8435;SDS011;4255;48.730;9.156;2023-12-04T03:19:38;38.03;;;19.33;;
8435;SDS011;4255;48.730;9.156;2023-12-04T03:22:03;27.97;;;16.63;;
8435;SDS011;4255;48.730;9.156;2023-12-04T03:24:29;34.87;;;17.23;;
8435;SDS011;4255;48.730;9.156;2023-12-04T03:26:55;26.90;;;16.63;;
8435;SDS011;4255;48.730;9.156;2023-12-04T03:29:20;32.15;;;15.88;;
8435;SDS011;4255;48.730;9.156;2023-12-04T03:31:46;29.40;;;15.90;;
8435;SDS011;4255;48.730;9.156;2023-12-04T03:34:12;30.73;;;16.47;;
8435;SDS011;4255;48.730;9.156;2023-12-04T03:36:37;29.80;;;16.97;;
8435;SDS011;4255;48.730;9.156;2023-12-04T03:39:03;28.73;;;16.70;;
8435;SDS011;4255;48.730;9.156;2023-12-04T03:41:29;28.77;;;16.67;;
8435;SDS011;4255;48.730;9.156;2023-12-04T03:43:54;32.17;;;17.63;;
8435;SDS011;4255;48.730;9.156;2023-12-04T03:46:20;23.87;;;16.53;;
8435;SDS011;4255;48.730;9.156;2023-12-04T03:48:46;30.70;;;15.63;;
8435;SDS011;4255;48.730;9.156;2023-12-04T03:51:11;29.73;;;18.17;;
8435;SDS011;4255;48.730;9.156;2023-12-04T03:53:37;35.57;;;17.70;;
8435;SDS011;4255;48.730;9.156;2023-12-04T03:56:02;31.17;;;18.17;;
8435;SDS011;4255;48.730;9.156;2023-12-04T03:58:28;26.42;;;15.27;;
8435;SDS011;4255;48.730;9.156;2023-12-04T04:00:54;26.27;;;16.17;;
8435;SDS011;4255;48.730;9.156;2023-12-04T04:03:19;30.07;;;17.43;;
8435;SDS011;4255;48.730;9.156;2023-12-04T04:05:45;30.37;;;17.50;;
8435;SDS011;4255;48.730;9.156;2023-12-04T04:08:10;26.93;;;14.27;;
8435;SDS011;4255;48.730;9.156;2023-12-04T04:10:36;31.73;;;16.20;;
8435;SDS011;4255;48.730;9.156;2023-12-04T04:13:02;28.30;;;15.90;;
8435;SDS011;4255;48.730;9.156;2023-12-04T04:15:27;22.83;;;14.43;;
8435;SDS011;4255;48.730;9.156;2023-12-04T04:17:53;24.87;;;15.20;;
8435;SDS011;4255;48.730;9.156;2023-12-04T04:20:19;25.40;;;15.47;;
8435;SDS011;4255;48.730;9.156;2023-12-04T04:22:47;28.20;;;17.77;;
8435;SDS011;4255;48.730;9.156;2023-12-04T04:25:13;23.35;;;16.23;;
8435;SDS011;4255;48.730;9.156;2023-12-04T04:27:38;28.73;;;17.63;;
8435;SDS011;4255;48.730;9.156;2023-12-04T04:30:04;30.47;;;16.13;;
8435;SDS011;4255;48.730;9.156;2023-12-04T04:32:30;32.20;;;17.08;;
8435;SDS011;4255;48.730;9.156;2023-12-04T04:34:56;34.42;;;18.90;;
8435;SDS011;4255;48.730;9.156;2023-12-04T04:37:22;28.20;;;17.63;;
8435;SDS011;4255;48.730;9.156;2023-12-04T04:39:47;37.17;;;18.93;;
8435;SDS011;4255;48.730;9.156;2023-12-04T04:42:14;32.87;;;18.27;;
8435;SDS011;4255;48.730;9.156;2023-12-04T04:44:39;31.65;;;17.15;;
8435;SDS011;4255;48.730;9.156;2023-12-04T04:47:05;30.57;;;19.40;;
8435;SDS011;4255;48.730;9.156;2023-12-04T04:49:30;33.87;;;20.90;;
8435;SDS011;4255;48.730;9.156;2023-12-04T04:51:56;64.97;;;28.30;;
8435;SDS011;4255;48.730;9.156;2023-12-04T04:54:21;54.07;;;23.50;;
8435;SDS011;4255;48.730;9.156;2023-12-04T04:56:47;39.73;;;18.40;;
8435;SDS011;4255;48.730;9.156;2023-12-04T04:59:13;30.10;;;16.70;;
8435;SDS011;4255;48.730;9.156;2023-12-04T05:01:38;28.67;;;16.50;;
8435;SDS011;4255;48.730;9.156;2023-12-04T05:04:04;23.73;;;15.40;;
8435;SDS011;4255;48.730;9.156;2023-12-04T05:06:29;25.57;;;14.53;;
8435;SDS011;4255;48.730;9.156;2023-12-04T05:08:55;23.65;;;15.50;;
8435;SDS011;4255;48.730;9.156;2023-12-04T05:11:21;21.17;;;13.10;;
8435;SDS011;4255;48.730;9.156;2023-12-04T05:13:47;32.97;;;14.90;;
8435;SDS011;4255;48.730;9.156;2023-12-04T05:16:13;31.10;;;13.77;;
8435;SDS011;4255;48.730;9.156;2023-12-04T05:18:39;22.90;;;12.70;;
8435;SDS011;4255;48.730;9.156;2023-12-04T05:21:11;23.80;;;13.67;;
8435;SDS011;4255;48.730;9.156;2023-12-04T05:23:37;22.75;;;13.35;;
8435;SDS011;4255;48.730;9.156;2023-12-04T05:26:03;24.83;;;13.38;;
8435;SDS011;4255;48.730;9.156;2023-12-04T05:28:32;21.05;;;13.98;;
8435;SDS011;4255;48.730;9.156;2023-12-04T05:30:59;20.23;;;13.70;;
8435;SDS011;4255;48.730;9.156;2023-12-04T05:33:25;24.77;;;15.27;;
8435;SDS011;4255;48.730;9.156;2023-12-04T05:35:51;26.17;;;14.03;;
8435;SDS011;4255;48.730;9.156;2023-12-04T05:38:17;29.02;;;15.55;;
8435;SDS011;4255;48.730;9.156;2023-12-04T05:40:43;25.53;;;15.03;;
8435;SDS011;4255;48.730;9.156;2023-12-04T05:43:08;31.63;;;15.30;;
8435;SDS011;4255;48.730;9.156;2023-12-04T05:45:34;25.73;;;16.67;;
8435;SDS011;4255;48.730;9.156;2023-12-04T05:48:00;26.37;;;14.97;;
8435;SDS011;4255;48.730;9.156;2023-12-04T05:50:26;27.80;;;14.93;;
8435;SDS011;4255;48.730;9.156;2023-12-04T05:52:51;18.87;;;13.23;;
8435;SDS011;4255;48.730;9.156;2023-12-04T05:55:17;36.00;;;20.70;;
8435;SDS011;4255;48.730;9.156;2023-12-04T05:57:43;49.47;;;27.40;;
8435;SDS011;4255;48.730;9.156;2023-12-04T06:00:09;40.75;;;23.48;;
8435;SDS011;4255;48.730;9.156;2023-12-04T06:02:44;50.47;;;27.30;;
8435;SDS011;4255;48.730;9.156;2023-12-04T06:05:10;41.65;;;20.55;;
8435;SDS011;4255;48.730;9.156;2023-12-04T06:07:36;39.40;;;24.17;;
8435;SDS011;4255;48.730;9.156;2023-12-04T06:10:02;37.45;;;24.10;;
8435;SDS011;4255;48.730;9.156;2023-12-04T06:12:33;26.63;;;17.95;;
8435;SDS011;4255;48.730;9.156;2023-12-04T06:14:59;27.13;;;17.90;;
8435;SDS011;4255;48.730;9.156;2023-12-04T06:17:25;30.73;;;18.00;;
8435;SDS011;4255;48.730;9.156;2023-12-04T06:19:50;28.00;;;18.42;;
8435;SDS011;4255;48.730;9.156;2023-12-04T06:22:16;34.60;;;19.37;;
8435;SDS011;4255;48.730;9.156;2023-12-04T06:24:45;29.90;;;18.23;;
8435;SDS011;4255;48.730;9.156;2023-12-04T06:27:11;29.07;;;17.53;;
8435;SDS011;4255;48.730;9.156;2023-12-04T06:29:40;31.35;;;18.92;;
8435;SDS011;4255;48.730;9.156;2023-12-04T06:32:06;32.20;;;18.67;;
8435;SDS011;4255;48.730;9.156;2023-12-04T06:34:32;26.45;;;16.63;;
8435;SDS011;4255;48.730;9.156;2023-12-04T06:36:58;30.83;;;17.90;;
8435;SDS011;4255;48.730;9.156;2023-12-04T06:39:26;19.05;;;13.18;;
8435;SDS011;4255;48.730;9.156;2023-12-04T06:41:57;27.80;;;15.63;;
8435;SDS011;4255;48.730;9.156;2023-12-04T06:44:23;29.48;;;16.85;;
8435;SDS011;4255;48.730;9.156;2023-12-04T06:46:49;40.87;;;22.30;;
8435;SDS011;4255;48.730;9.156;2023-12-04T06:49:17;37.00;;;20.55;;
8435;SDS011;4255;48.730;9.156;2023-12-04T06:51:43;32.28;;;16.83;;
8435;SDS011;4255;48.730;9.156;2023-12-04T06:54:09;27.77;;;17.13;;
8435;SDS011;4255;48.730;9.156;2023-12-04T06:56:36;28.10;;;17.42;;
8435;SDS011;4255;48.730;9.156;2023-12-04T06:59:01;27.40;;;15.50;;
8435;SDS011;4255;48.730;9.156;2023-12-04T07:01:27;27.87;;;17.30;;
8435;SDS011;4255;48.730;9.156;2023-12-04T07:03:52;23.40;;;15.53;;
8435;SDS011;4255;48.730;9.156;2023-12-04T07:06:18;32.73;;;17.50;;
8435;SDS011;4255;48.730;9.156;2023-12-04T07:08:44;30.03;;;18.07;;
8435;SDS011;4255;48.730;9.156;2023-12-04T07:11:09;26.00;;;16.30;;
8435;SDS011;4255;48.730;9.156;2023-12-04T07:13:35;31.77;;;20.83;;
8435;SDS011;4255;48.730;9.156;2023-12-04T07:16:01;33.87;;;17.13;;
8435;SDS011;4255;48.730;9.156;2023-12-04T07:18:28;34.40;;;18.15;;
8435;SDS011;4255;48.730;9.156;2023-12-04T07:20:53;28.00;;;16.60;;
8435;SDS011;4255;48.730;9.156;2023-12-04T07:23:19;32.27;;;16.80;;
8435;SDS011;4255;48.730;9.156;2023-12-04T07:25:44;24.70;;;16.23;;
8435;SDS011;4255;48.730;9.156;2023-12-04T07:28:11;30.08;;;16.33;;
8435;SDS011;4255;48.730;9.156;2023-12-04T07:30:38;36.70;;;16.97;;
8435;SDS011;4255;48.730;9.156;2023-12-04T07:33:04;25.50;;;15.18;;
8435;SDS011;4255;48.730;9.156;2023-12-04T07:35:29;29.03;;;15.57;;
8435;SDS011;4255;48.730;9.156;2023-12-04T07:37:55;27.30;;;16.33;;
8435;SDS011;4255;48.730;9.156;2023-12-04T07:40:20;28.07;;;16.57;;
8435;SDS011;4255;48.730;9.156;2023-12-04T07:42:47;25.60;;;14.07;;
8435;SDS011;4255;48.730;9.156;2023-12-04T07:45:13;24.33;;;14.07;;
8435;SDS011;4255;48.730;9.156;2023-12-04T07:47:40;29.20;;;17.13;;
8435;SDS011;4255;48.730;9.156;2023-12-04T07:50:06;30.77;;;17.03;;
8435;SDS011;4255;48.730;9.156;2023-12-04T07:52:32;35.70;;;16.35;;
8435;SDS011;4255;48.730;9.156;2023-12-04T07:54:58;29.23;;;17.90;;
8435;SDS011;4255;48.730;9.156;2023-12-04T07:57:24;31.67;;;17.37;;
8435;SDS011;4255;48.730;9.156;2023-12-04T07:59:49;26.87;;;17.43;;
8435;SDS011;4255;48.730;9.156;2023-12-04T08:02:15;32.10;;;18.17;;
8435;SDS011;4255;48.730;9.156;2023-12-04T08:04:40;26.87;;;17.50;;
8435;SDS011;4255;48.730;9.156;2023-12-04T08:07:06;27.03;;;16.00;;
8435;SDS011;4255;48.730;9.156;2023-12-04T08:09:31;29.10;;;15.47;;
8435;SDS011;4255;48.730;9.156;2023-12-04T08:11:57;26.87;;;16.07;;
8435;SDS011;4255;48.730;9.156;2023-12-04T08:14:23;29.50;;;17.70;;
8435;SDS011;4255;48.730;9.156;2023-12-04T08:16:49;20.17;;;16.17;;
8435;SDS011;4255;48.730;9.156;2023-12-04T08:19:14;27.93;;;16.67;;
8435;SDS011;4255;48.730;9.156;2023-12-04T08:21:40;27.95;;;16.52;;
8435;SDS011;4255;48.730;9.156;2023-12-04T08:24:06;35.23;;;17.47;;
8435;SDS011;4255;48.730;9.156;2023-12-04T08:26:32;29.77;;;16.13;;
8435;SDS011;4255;48.730;9.156;2023-12-04T08:28:57;29.23;;;17.40;;
8435;SDS011;4255;48.730;9.156;2023-12-04T08:31:23;29.20;;;17.20;;
8435;SDS011;4255;48.730;9.156;2023-12-04T08:33:48;32.67;;;16.83;;
8435;SDS011;4255;48.730;9.156;2023-12-04T08:36:14;27.63;;;16.13;;
8435;SDS011;4255;48.730;9.156;2023-12-04T08:38:40;31.40;;;17.65;;
8435;SDS011;4255;48.730;9.156;2023-12-04T08:41:06;25.07;;;17.10;;
8435;SDS011;4255;48.730;9.156;2023-12-04T08:43:32;30.37;;;15.43;;
8435;SDS011;4255;48.730;9.156;2023-12-04T08:45:57;23.63;;;13.80;;
8435;SDS011;4255;48.730;9.156;2023-12-04T08:48:23;32.50;;;17.45;;
8435;SDS011;4255;48.730;9.156;2023-12-04T08:50:49;22.83;;;15.30;;
8435;SDS011;4255;48.730;9.156;2023-12-04T08:53:14;27.10;;;15.40;;
8435;SDS011;4255;48.730;9.156;2023-12-04T08:55:40;28.10;;;16.73;;
8435;SDS011;4255;48.730;9.156;2023-12-04T08:58:06;24.90;;;14.47;;
8435;SDS011;4255;48.730;9.156;2023-12-04T09:00:31;28.30;;;15.37;;
8435;SDS011;4255;48.730;9.156;2023-12-04T09:02:58;26.33;;;15.75;;
8435;SDS011;4255;48.730;9.156;2023-12-04T09:05:23;27.73;;;16.83;;
8435;SDS011;4255;48.730;9.156;2023-12-04T09:07:49;25.70;;;15.50;;
8435;SDS011;4255;48.730;9.156;2023-12-04T09:10:14;22.60;;;15.43;;
8435;SDS011;4255;48.730;9.156;2023-12-04T09:12:40;23.13;;;14.10;;
8435;SDS011;4255;48.730;9.156;2023-12-04T09:15:06;20.70;;;15.10;;
8435;SDS011;4255;48.730;9.156;2023-12-04T09:17:32;19.53;;;12.90;;
8435;SDS011;4255;48.730;9.156;2023-12-04T09:19:58;21.45;;;14.40;;
8435;SDS011;4255;48.730;9.156;2023-12-04T09:22:24;18.50;;;12.80;;
8435;SDS011;4255;48.730;9.156;2023-12-04T09:24:49;32.33;;;13.77;;
8435;SDS011;4255;48.730;9.156;2023-12-04T09:27:15;20.83;;;13.87;;
8435;SDS011;4255;48.730;9.156;2023-12-04T09:29:42;20.63;;;13.35;;
8435;SDS011;4255;48.730;9.156;2023-12-04T09:32:08;17.17;;;12.85;;
8435;SDS011;4255;48.730;9.156;2023-12-04T09:34:34;21.25;;;15.77;;
8435;SDS011;4255;48.730;9.156;2023-12-04T09:37:00;17.23;;;13.00;;
8435;SDS011;4255;48.730;9.156;2023-12-04T09:39:26;20.90;;;14.03;;
8435;SDS011;4255;48.730;9.156;2023-12-04T09:41:51;21.27;;;13.97;;
8435;SDS011;4255;48.730;9.156;2023-12-04T09:44:17;20.70;;;14.88;;
8435;SDS011;4255;48.730;9.156;2023-12-04T09:46:45;19.73;;;13.55;;
8435;SDS011;4255;48.730;9.156;2023-12-04T09:49:11;18.50;;;13.33;;
8435;SDS011;4255;48.730;9.156;2023-12-04T09:51:37;21.35;;;13.13;;
8435;SDS011;4255;48.730;9.156;2023-12-04T09:54:03;18.30;;;11.90;;
8435;SDS011;4255;48.730;9.156;2023-12-04T09:56:29;18.20;;;11.48;;
8435;SDS011;4255;48.730;9.156;2023-12-04T09:58:58;17.08;;;11.48;;
8435;SDS011;4255;48.730;9.156;2023-12-04T10:01:26;19.90;;;12.23;;
8435;SDS011;4255;48.730;9.156;2023-12-04T10:03:57;21.67;;;13.60;;
8435;SDS011;4255;48.730;9.156;2023-12-04T10:06:26;18.60;;;11.80;;
8435;SDS011;4255;48.730;9.156;2023-12-04T10:08:53;17.67;;;12.68;;
8435;SDS011;4255;48.730;9.156;2023-12-04T10:11:20;22.98;;;12.02;;
8435;SDS011;4255;48.730;9.156;2023-12-04T10:13:46;23.40;;;12.48;;
8435;SDS011;4255;48.730;9.156;2023-12-04T10:16:12;21.60;;;14.00;;
8435;SDS011;4255;48.730;9.156;2023-12-04T10:18:38;19.57;;;12.70;;
8435;SDS011;4255;48.730;9.156;2023-12-04T10:21:03;15.50;;;12.03;;
8435;SDS011;4255;48.730;9.156;2023-12-04T10:23:39;18.55;;;12.48;;
8435;SDS011;4255;48.730;9.156;2023-12-04T10:26:09;19.08;;;12.68;;
8435;SDS011;4255;48.730;9.156;2023-12-04T10:28:40;13.90;;;10.98;;
8435;SDS011;4255;48.730;9.156;2023-12-04T10:31:31;18.52;;;11.50;;
8435;SDS011;4255;48.730;9.156;2023-12-04T10:34:01;17.38;;;12.60;;
8435;SDS011;4255;48.730;9.156;2023-12-04T10:36:28;16.52;;;11.13;;
8435;SDS011;4255;48.730;9.156;2023-12-04T10:38:59;16.10;;;11.55;;
8435;SDS011;4255;48.730;9.156;2023-12-04T10:41:25;18.85;;;12.70;;
8435;SDS011;4255;48.730;9.156;2023-12-04T10:43:51;16.45;;;12.02;;
8435;SDS011;4255;48.730;9.156;2023-12-04T10:46:17;18.70;;;12.80;;
8435;SDS011;4255;48.730;9.156;2023-12-04T10:48:47;17.92;;;12.35;;
8435;SDS011;4255;48.730;9.156;2023-12-04T10:51:13;22.38;;;13.82;;
8435;SDS011;4255;48.730;9.156;2023-12-04T10:53:42;16.92;;;11.77;;
8435;SDS011;4255;48.730;9.156;2023-12-04T10:56:09;15.40;;;12.15;;
8435;SDS011;4255;48.730;9.156;2023-12-04T10:58:39;21.40;;;13.00;;
8435;SDS011;4255;48.730;9.156;2023-12-04T11:01:06;18.77;;;12.43;;
8435;SDS011;4255;48.730;9.156;2023-12-04T11:03:48;15.50;;;11.68;;
8435;SDS011;4255;48.730;9.156;2023-12-04T11:06:16;19.65;;;12.70;;
8435;SDS011;4255;48.730;9.156;2023-12-04T11:08:43;17.63;;;11.35;;
8435;SDS011;4255;48.730;9.156;2023-12-04T11:11:12;21.27;;;12.00;;
8435;SDS011;4255;48.730;9.156;2023-12-04T11:13:41;19.05;;;11.20;;
8435;SDS011;4255;48.730;9.156;2023-12-04T11:16:18;32.65;;;16.77;;
8435;SDS011;4255;48.730;9.156;2023-12-04T11:18:56;22.23;;;16.88;;
8435;SDS011;4255;48.730;9.156;2023-12-04T11:21:43;15.38;;;10.90;;
8435;SDS011;4255;48.730;9.156;2023-12-04T11:24:10;17.38;;;11.95;;
8435;SDS011;4255;48.730;9.156;2023-12-04T11:26:37;27.27;;;18.25;;
8435;SDS011;4255;48.730;9.156;2023-12-04T11:29:05;17.38;;;13.70;;
8435;SDS011;4255;48.730;9.156;2023-12-04T11:31:33;20.15;;;12.65;;
8435;SDS011;4255;48.730;9.156;2023-12-04T11:34:03;14.45;;;11.60;;
8435;SDS011;4255;48.730;9.156;2023-12-04T11:36:29;17.85;;;12.35;;
8435;SDS011;4255;48.730;9.156;2023-12-04T11:38:55;16.53;;;12.17;;
8435;SDS011;4255;48.730;9.156;2023-12-04T11:41:24;16.15;;;12.07;;
8435;SDS011;4255;48.730;9.156;2023-12-04T11:43:50;17.60;;;11.20;;
8435;SDS011;4255;48.730;9.156;2023-12-04T11:46:20;16.10;;;12.48;;
8435;SDS011;4255;48.730;9.156;2023-12-04T11:48:50;17.80;;;12.65;;
8435;SDS011;4255;48.730;9.156;2023-12-04T11:54:08;18.73;;;10.90;;
8435;SDS011;4255;48.730;9.156;2023-12-04T11:59:39;15.30;;;11.43;;
8435;SDS011;4255;48.730;9.156;2023-12-04T12:02:08;13.02;;;10.55;;
8435;SDS011;4255;48.730;9.156;2023-12-04T12:04:34;13.80;;;10.93;;
8435;SDS011;4255;48.730;9.156;2023-12-04T12:07:00;19.03;;;12.23;;
8435;SDS011;4255;48.730;9.156;2023-12-04T12:09:30;20.00;;;11.45;;
8435;SDS011;4255;48.730;9.156;2023-12-04T12:11:58;17.20;;;11.95;;
8435;SDS011;4255;48.730;9.156;2023-12-04T12:14:28;17.95;;;12.65;;
8435;SDS011;4255;48.730;9.156;2023-12-04T12:16:54;17.73;;;12.93;;
8435;SDS011;4255;48.730;9.156;2023-12-04T12:19:20;22.08;;;13.60;;
8435;SDS011;4255;48.730;9.156;2023-12-04T12:21:47;20.65;;;12.60;;
8435;SDS011;4255;48.730;9.156;2023-12-04T12:24:14;18.48;;;13.68;;
8435;SDS011;4255;48.730;9.156;2023-12-04T12:26:40;16.38;;;13.05;;
8435;SDS011;4255;48.730;9.156;2023-12-04T12:29:06;17.07;;;12.03;;
8435;SDS011;4255;48.730;9.156;2023-12-04T12:31:34;16.45;;;11.70;;
8435;SDS011;4255;48.730;9.156;2023-12-04T12:33:59;16.40;;;11.80;;
8435;SDS011;4255;48.730;9.156;2023-12-04T12:36:25;19.00;;;13.00;;
8435;SDS011;4255;48.730;9.156;2023-12-04T12:38:51;19.70;;;13.60;;
8435;SDS011;4255;48.730;9.156;2023-12-04T12:41:16;20.53;;;13.63;;
8435;SDS011;4255;48.730;9.156;2023-12-04T12:43:43;16.90;;;13.20;;
8435;SDS011;4255;48.730;9.156;2023-12-04T12:46:09;21.42;;;15.45;;
8435;SDS011;4255;48.730;9.156;2023-12-04T12:48:36;20.73;;;14.43;;
8435;SDS011;4255;48.730;9.156;2023-12-04T12:51:04;20.00;;;13.83;;
8435;SDS011;4255;48.730;9.156;2023-12-04T12:53:33;19.13;;;15.27;;
8435;SDS011;4255;48.730;9.156;2023-12-04T12:55:59;21.35;;;14.75;;
8435;SDS011;4255;48.730;9.156;2023-12-04T12:58:26;22.63;;;16.88;;
8435;SDS011;4255;48.730;9.156;2023-12-04T13:00:52;25.30;;;16.92;;
8435;SDS011;4255;48.730;9.156;2023-12-04T13:03:18;22.93;;;16.97;;
8435;SDS011;4255;48.730;9.156;2023-12-04T13:05:44;28.65;;;18.17;;
8435;SDS011;4255;48.730;9.156;2023-12-04T13:08:11;24.70;;;16.27;;
8435;SDS011;4255;48.730;9.156;2023-12-04T13:10:37;26.55;;;16.92;;
8435;SDS011;4255;48.730;9.156;2023-12-04T13:13:04;30.58;;;18.20;;
8435;SDS011;4255;48.730;9.156;2023-12-04T13:15:34;23.63;;;18.65;;
8435;SDS011;4255;48.730;9.156;2023-12-04T13:18:00;26.83;;;18.40;;
8435;SDS011;4255;48.730;9.156;2023-12-04T13:20:25;21.80;;;17.20;;
8435;SDS011;4255;48.730;9.156;2023-12-04T13:22:51;28.53;;;19.37;;
8435;SDS011;4255;48.730;9.156;2023-12-04T13:25:16;28.23;;;20.47;;
8435;SDS011;4255;48.730;9.156;2023-12-04T13:27:42;26.67;;;16.83;;
8435;SDS011;4255;48.730;9.156;2023-12-04T13:30:08;25.43;;;17.83;;
8435;SDS011;4255;48.730;9.156;2023-12-04T13:32:35;26.88;;;20.08;;
8435;SDS011;4255;48.730;9.156;2023-12-04T13:35:01;26.47;;;17.27;;
8435;SDS011;4255;48.730;9.156;2023-12-04T13:37:29;25.90;;;17.77;;
8435;SDS011;4255;48.730;9.156;2023-12-04T13:39:55;27.63;;;18.27;;
8435;SDS011;4255;48.730;9.156;2023-12-04T13:42:29;27.33;;;18.90;;
8435;SDS011;4255;48.730;9.156;2023-12-04T13:45:13;27.60;;;19.67;;
8435;SDS011;4255;48.730;9.156;2023-12-04T13:47:38;31.17;;;20.13;;
8435;SDS011;4255;48.730;9.156;2023-12-04T13:50:05;31.70;;;21.30;;
8435;SDS011;4255;48.730;9.156;2023-12-04T13:52:33;36.00;;;22.08;;
8435;SDS011;4255;48.730;9.156;2023-12-04T13:55:00;29.45;;;21.20;;
8435;SDS011;4255;48.730;9.156;2023-12-04T13:57:25;27.47;;;21.00;;
8435;SDS011;4255;48.730;9.156;2023-12-04T14:00:01;25.48;;;17.92;;
8435;SDS011;4255;48.730;9.156;2023-12-04T14:02:26;23.50;;;17.63;;
8435;SDS011;4255;48.730;9.156;2023-12-04T14:04:52;30.02;;;18.83;;
8435;SDS011;4255;48.730;9.156;2023-12-04T14:07:18;27.90;;;19.30;;
8435;SDS011;4255;48.730;9.156;2023-12-04T14:09:44;26.57;;;18.70;;
8435;SDS011;4255;48.730;9.156;2023-12-04T14:12:10;33.92;;;20.02;;
8435;SDS011;4255;48.730;9.156;2023-12-04T14:14:36;31.02;;;20.58;;
8435;SDS011;4255;48.730;9.156;2023-12-04T14:17:05;29.38;;;19.33;;
8435;SDS011;4255;48.730;9.156;2023-12-04T14:19:32;26.88;;;19.85;;
8435;SDS011;4255;48.730;9.156;2023-12-04T14:21:58;27.63;;;18.47;;
8435;SDS011;4255;48.730;9.156;2023-12-04T14:24:23;35.73;;;19.77;;
8435;SDS011;4255;48.730;9.156;2023-12-04T14:26:49;26.87;;;19.87;;
8435;SDS011;4255;48.730;9.156;2023-12-04T14:29:15;28.80;;;20.25;;
8435;SDS011;4255;48.730;9.156;2023-12-04T14:31:41;29.43;;;20.87;;
8435;SDS011;4255;48.730;9.156;2023-12-04T14:34:07;28.70;;;19.73;;
8435;SDS011;4255;48.730;9.156;2023-12-04T14:36:33;29.60;;;20.70;;
8435;SDS011;4255;48.730;9.156;2023-12-04T14:38:58;33.67;;;21.30;;
8435;SDS011;4255;48.730;9.156;2023-12-04T14:41:24;50.27;;;29.17;;
8435;SDS011;4255;48.730;9.156;2023-12-04T14:43:50;43.03;;;23.43;;
8435;SDS011;4255;48.730;9.156;2023-12-04T14:46:16;32.10;;;22.27;;
8435;SDS011;4255;48.730;9.156;2023-12-04T14:48:41;29.60;;;21.80;;
8435;SDS011;4255;48.730;9.156;2023-12-04T14:51:08;32.33;;;22.20;;